sensor_id;sensor_type;location;lat;lon;timestamp;temperature;humidity
44695;DHT22;32845;59.422;17.930;2022-07-17T00:01:35;13.90;99.90
44695;DHT22;32845;59.422;17.930;2022-07-17T00:06:06;13.80;99.90
44695;DHT22;32845;59.422;17.930;2022-07-17T00:10:38;13.80;99.90
44695;DHT22;32845;59.422;17.930;2022-07-17T00:15:09;13.80;99.90
44695;DHT22;32845;59.422;17.930;2022-07-17T00:19:45;13.80;99.90
44695;DHT22;32845;59.422;17.930;2022-07-17T00:24:16;13.80;99.90
44695;DHT22;32845;59.422;17.930;2022-07-17T00:28:50;13.80;99.90
44695;DHT22;32845;59.422;17.930;2022-07-17T00:33:20;13.80;99.90
44695;DHT22;32845;59.422;17.930;2022-07-17T00:37:51;13.90;99.90
44695;DHT22;32845;59.422;17.930;2022-07-17T00:42:27;13.90;99.90
44695;DHT22;32845;59.422;17.930;2022-07-17T00:46:58;13.80;99.90
44695;DHT22;32845;59.422;17.930;2022-07-17T00:51:28;13.90;99.90
44695;DHT22;32845;59.422;17.930;2022-07-17T00:56:02;13.90;99.90
44695;DHT22;32845;59.422;17.930;2022-07-17T01:00:38;13.90;99.90
44695;DHT22;32845;59.422;17.930;2022-07-17T01:05:08;13.90;99.90
44695;DHT22;32845;59.422;17.930;2022-07-17T01:09:39;13.90;99.90
44695;DHT22;32845;59.422;17.930;2022-07-17T01:14:09;13.90;99.90
44695;DHT22;32845;59.422;17.930;2022-07-17T01:18:41;13.90;99.90
44695;DHT22;32845;59.422;17.930;2022-07-17T01:23:13;13.90;99.90
44695;DHT22;32845;59.422;17.930;2022-07-17T01:27:43;13.70;99.90
44695;DHT22;32845;59.422;17.930;2022-07-17T01:32:14;13.60;99.90
44695;DHT22;32845;59.422;17.930;2022-07-17T01:36:45;13.50;99.90
44695;DHT22;32845;59.422;17.930;2022-07-17T01:41:15;13.40;99.90
44695;DHT22;32845;59.422;17.930;2022-07-17T01:45:46;13.30;99.90
44695;DHT22;32845;59.422;17.930;2022-07-17T01:50:21;13.20;99.90
44695;DHT22;32845;59.422;17.930;2022-07-17T01:54:53;13.20;99.90
44695;DHT22;32845;59.422;17.930;2022-07-17T01:59:23;13.20;99.90
44695;DHT22;32845;59.422;17.930;2022-07-17T02:03:54;13.20;99.90
44695;DHT22;32845;59.422;17.930;2022-07-17T02:08:25;13.20;99.90
44695;DHT22;32845;59.422;17.930;2022-07-17T02:13:00;13.20;99.90
44695;DHT22;32845;59.422;17.930;2022-07-17T02:17:31;13.10;99.90
44695;DHT22;32845;59.422;17.930;2022-07-17T02:22:02;13.00;99.90
44695;DHT22;32845;59.422;17.930;2022-07-17T02:26:34;12.90;99.90
44695;DHT22;32845;59.422;17.930;2022-07-17T02:31:04;12.90;99.90
44695;DHT22;32845;59.422;17.930;2022-07-17T02:35:35;12.90;99.90
44695;DHT22;32845;59.422;17.930;2022-07-17T02:40:06;12.80;99.90
44695;DHT22;32845;59.422;17.930;2022-07-17T02:44:37;12.70;99.90
44695;DHT22;32845;59.422;17.930;2022-07-17T02:49:08;12.80;99.90
44695;DHT22;32845;59.422;17.930;2022-07-17T02:53:38;12.80;99.90
44695;DHT22;32845;59.422;17.930;2022-07-17T02:58:09;12.80;99.90
44695;DHT22;32845;59.422;17.930;2022-07-17T03:02:39;12.90;99.90
44695;DHT22;32845;59.422;17.930;2022-07-17T03:07:10;12.90;99.90
44695;DHT22;32845;59.422;17.930;2022-07-17T03:11:41;12.90;99.90
44695;DHT22;32845;59.422;17.930;2022-07-17T03:16:11;12.90;99.90
44695;DHT22;32845;59.422;17.930;2022-07-17T03:20:47;12.90;99.90
44695;DHT22;32845;59.422;17.930;2022-07-17T03:25:17;13.00;99.90
44695;DHT22;32845;59.422;17.930;2022-07-17T03:29:53;13.00;99.90
44695;DHT22;32845;59.422;17.930;2022-07-17T03:34:25;12.90;99.90
44695;DHT22;32845;59.422;17.930;2022-07-17T03:38:55;12.90;99.90
44695;DHT22;32845;59.422;17.930;2022-07-17T03:43:31;12.90;99.90
44695;DHT22;32845;59.422;17.930;2022-07-17T03:48:02;12.90;99.90
44695;DHT22;32845;59.422;17.930;2022-07-17T03:52:37;13.00;99.90
44695;DHT22;32845;59.422;17.930;2022-07-17T03:57:08;13.10;99.90
44695;DHT22;32845;59.422;17.930;2022-07-17T04:01:44;13.10;99.90
44695;DHT22;32845;59.422;17.930;2022-07-17T04:06:15;13.20;99.90
44695;DHT22;32845;59.422;17.930;2022-07-17T04:10:50;13.20;99.90
44695;DHT22;32845;59.422;17.930;2022-07-17T04:15:21;13.20;99.90
44695;DHT22;32845;59.422;17.930;2022-07-17T04:20:10;13.30;99.90
44695;DHT22;32845;59.422;17.930;2022-07-17T04:24:41;13.30;99.90
44695;DHT22;32845;59.422;17.930;2022-07-17T04:29:12;13.40;99.90
44695;DHT22;32845;59.422;17.930;2022-07-17T04:33:43;13.50;99.90
44695;DHT22;32845;59.422;17.930;2022-07-17T04:38:13;13.50;99.90
44695;DHT22;32845;59.422;17.930;2022-07-17T04:42:44;13.50;99.90
44695;DHT22;32845;59.422;17.930;2022-07-17T04:47:15;13.60;99.90
44695;DHT22;32845;59.422;17.930;2022-07-17T04:51:45;13.60;99.90
44695;DHT22;32845;59.422;17.930;2022-07-17T04:56:16;13.70;99.90
44695;DHT22;32845;59.422;17.930;2022-07-17T05:00:47;13.70;99.90
44695;DHT22;32845;59.422;17.930;2022-07-17T05:05:17;13.80;99.90
44695;DHT22;32845;59.422;17.930;2022-07-17T05:09:57;13.80;99.90
44695;DHT22;32845;59.422;17.930;2022-07-17T05:14:28;13.90;99.90
44695;DHT22;32845;59.422;17.930;2022-07-17T05:18:58;13.90;99.90
44695;DHT22;32845;59.422;17.930;2022-07-17T05:23:29;13.90;99.90
44695;DHT22;32845;59.422;17.930;2022-07-17T05:27:59;14.00;99.90
44695;DHT22;32845;59.422;17.930;2022-07-17T05:32:30;14.00;99.90
44695;DHT22;32845;59.422;17.930;2022-07-17T05:37:01;14.10;99.90
44695;DHT22;32845;59.422;17.930;2022-07-17T05:41:31;14.10;99.90
44695;DHT22;32845;59.422;17.930;2022-07-17T05:46:02;14.10;99.90
44695;DHT22;32845;59.422;17.930;2022-07-17T05:50:33;14.10;99.90
44695;DHT22;32845;59.422;17.930;2022-07-17T05:55:05;14.30;99.90
44695;DHT22;32845;59.422;17.930;2022-07-17T05:59:35;14.40;99.90
44695;DHT22;32845;59.422;17.930;2022-07-17T06:04:06;14.50;99.90
44695;DHT22;32845;59.422;17.930;2022-07-17T06:08:37;14.50;99.90
44695;DHT22;32845;59.422;17.930;2022-07-17T06:13:07;14.60;99.90
44695;DHT22;32845;59.422;17.930;2022-07-17T06:17:38;14.70;99.90
44695;DHT22;32845;59.422;17.930;2022-07-17T06:22:19;14.70;99.90
44695;DHT22;32845;59.422;17.930;2022-07-17T06:26:50;14.80;99.90
44695;DHT22;32845;59.422;17.930;2022-07-17T06:31:21;14.90;99.90
44695;DHT22;32845;59.422;17.930;2022-07-17T06:35:52;15.00;99.90
44695;DHT22;32845;59.422;17.930;2022-07-17T06:40:23;15.00;99.90
44695;DHT22;32845;59.422;17.930;2022-07-17T06:44:53;15.10;99.90
44695;DHT22;32845;59.422;17.930;2022-07-17T06:49:24;15.20;99.90
44695;DHT22;32845;59.422;17.930;2022-07-17T06:53:55;15.30;99.90
44695;DHT22;32845;59.422;17.930;2022-07-17T06:58:25;15.40;99.90
44695;DHT22;32845;59.422;17.930;2022-07-17T07:02:56;15.40;99.90
44695;DHT22;32845;59.422;17.930;2022-07-17T07:07:27;15.40;99.90
44695;DHT22;32845;59.422;17.930;2022-07-17T07:11:57;15.60;99.90
44695;DHT22;32845;59.422;17.930;2022-07-17T07:16:28;15.70;99.90
44695;DHT22;32845;59.422;17.930;2022-07-17T07:20:58;15.70;99.90
44695;DHT22;32845;59.422;17.930;2022-07-17T07:25:29;15.80;99.90
44695;DHT22;32845;59.422;17.930;2022-07-17T07:30:00;15.90;99.90
44695;DHT22;32845;59.422;17.930;2022-07-17T07:34:30;15.90;99.90
44695;DHT22;32845;59.422;17.930;2022-07-17T07:39:01;16.00;99.90
44695;DHT22;32845;59.422;17.930;2022-07-17T07:43:32;16.20;99.90
44695;DHT22;32845;59.422;17.930;2022-07-17T07:48:03;16.30;99.70
44695;DHT22;32845;59.422;17.930;2022-07-17T07:52:33;16.40;99.40
44695;DHT22;32845;59.422;17.930;2022-07-17T07:57:04;16.40;99.40
44695;DHT22;32845;59.422;17.930;2022-07-17T08:01:35;16.60;99.00
44695;DHT22;32845;59.422;17.930;2022-07-17T08:06:05;16.60;98.30
44695;DHT22;32845;59.422;17.930;2022-07-17T08:10:36;16.70;97.70
44695;DHT22;32845;59.422;17.930;2022-07-17T08:15:07;16.70;97.90
44695;DHT22;32845;59.422;17.930;2022-07-17T08:19:47;16.90;97.90
44695;DHT22;32845;59.422;17.930;2022-07-17T08:24:17;16.90;96.30
44695;DHT22;32845;59.422;17.930;2022-07-17T08:28:48;17.10;96.60
44695;DHT22;32845;59.422;17.930;2022-07-17T08:33:28;17.10;96.40
44695;DHT22;32845;59.422;17.930;2022-07-17T08:37:58;17.20;95.30
44695;DHT22;32845;59.422;17.930;2022-07-17T08:42:35;17.20;95.70
44695;DHT22;32845;59.422;17.930;2022-07-17T08:47:14;17.30;95.70
44695;DHT22;32845;59.422;17.930;2022-07-17T08:51:44;17.40;96.10
44695;DHT22;32845;59.422;17.930;2022-07-17T08:56:15;17.50;95.70
44695;DHT22;32845;59.422;17.930;2022-07-17T09:00:46;17.60;95.50
44695;DHT22;32845;59.422;17.930;2022-07-17T09:05:20;17.60;95.10
44695;DHT22;32845;59.422;17.930;2022-07-17T09:09:52;17.70;94.90
44695;DHT22;32845;59.422;17.930;2022-07-17T09:14:23;17.80;94.50
44695;DHT22;32845;59.422;17.930;2022-07-17T09:18:54;17.80;94.70
44695;DHT22;32845;59.422;17.930;2022-07-17T09:23:26;17.90;94.70
44695;DHT22;32845;59.422;17.930;2022-07-17T09:28:00;18.00;94.90
44695;DHT22;32845;59.422;17.930;2022-07-17T09:32:38;18.10;94.40
44695;DHT22;32845;59.422;17.930;2022-07-17T09:37:09;18.20;93.60
44695;DHT22;32845;59.422;17.930;2022-07-17T09:41:45;18.20;93.90
44695;DHT22;32845;59.422;17.930;2022-07-17T09:46:21;18.20;93.50
44695;DHT22;32845;59.422;17.930;2022-07-17T09:51:02;18.10;94.00
44695;DHT22;32845;59.422;17.930;2022-07-17T09:55:33;18.20;93.70
44695;DHT22;32845;59.422;17.930;2022-07-17T10:00:07;18.20;93.70
44695;DHT22;32845;59.422;17.930;2022-07-17T10:04:42;18.40;93.90
44695;DHT22;32845;59.422;17.930;2022-07-17T10:09:13;18.50;93.20
44695;DHT22;32845;59.422;17.930;2022-07-17T10:13:45;18.60;93.90
44695;DHT22;32845;59.422;17.930;2022-07-17T10:18:16;18.60;93.60
44695;DHT22;32845;59.422;17.930;2022-07-17T10:22:47;18.70;93.30
44695;DHT22;32845;59.422;17.930;2022-07-17T10:27:29;18.90;93.40
44695;DHT22;32845;59.422;17.930;2022-07-17T10:32:02;19.00;92.80
44695;DHT22;32845;59.422;17.930;2022-07-17T10:36:39;19.10;92.60
44695;DHT22;32845;59.422;17.930;2022-07-17T10:41:19;19.20;93.00
44695;DHT22;32845;59.422;17.930;2022-07-17T10:45:50;19.40;92.60
44695;DHT22;32845;59.422;17.930;2022-07-17T10:54:57;19.50;92.00
44695;DHT22;32845;59.422;17.930;2022-07-17T10:59:27;19.60;92.10
44695;DHT22;32845;59.422;17.930;2022-07-17T11:04:00;19.70;92.00
44695;DHT22;32845;59.422;17.930;2022-07-17T11:08:31;19.90;91.00
44695;DHT22;32845;59.422;17.930;2022-07-17T11:13:15;20.00;91.30
44695;DHT22;32845;59.422;17.930;2022-07-17T11:17:47;20.10;90.30
44695;DHT22;32845;59.422;17.930;2022-07-17T11:22:22;20.30;91.40
44695;DHT22;32845;59.422;17.930;2022-07-17T11:26:54;20.60;91.10
44695;DHT22;32845;59.422;17.930;2022-07-17T11:31:35;20.60;90.00
44695;DHT22;32845;59.422;17.930;2022-07-17T11:36:05;20.60;87.40
44695;DHT22;32845;59.422;17.930;2022-07-17T11:40:48;20.70;90.20
44695;DHT22;32845;59.422;17.930;2022-07-17T11:45:20;21.00;86.80
44695;DHT22;32845;59.422;17.930;2022-07-17T11:49:51;21.20;88.60
44695;DHT22;32845;59.422;17.930;2022-07-17T11:54:21;21.40;88.60
44695;DHT22;32845;59.422;17.930;2022-07-17T11:58:52;21.70;87.40
44695;DHT22;32845;59.422;17.930;2022-07-17T12:03:25;21.80;86.70
44695;DHT22;32845;59.422;17.930;2022-07-17T12:07:56;22.00;85.10
44695;DHT22;32845;59.422;17.930;2022-07-17T12:12:32;21.90;82.90
44695;DHT22;32845;59.422;17.930;2022-07-17T12:17:03;22.20;83.60
44695;DHT22;32845;59.422;17.930;2022-07-17T12:22:04;22.40;83.40
44695;DHT22;32845;59.422;17.930;2022-07-17T12:26:35;22.40;80.60
44695;DHT22;32845;59.422;17.930;2022-07-17T12:31:21;22.60;82.70
44695;DHT22;32845;59.422;17.930;2022-07-17T12:35:54;22.80;80.00
44695;DHT22;32845;59.422;17.930;2022-07-17T12:40:29;22.80;81.10
44695;DHT22;32845;59.422;17.930;2022-07-17T12:45:00;22.70;79.80
44695;DHT22;32845;59.422;17.930;2022-07-17T12:49:32;22.80;79.80
44695;DHT22;32845;59.422;17.930;2022-07-17T12:54:08;22.90;80.10
44695;DHT22;32845;59.422;17.930;2022-07-17T12:58:38;22.90;78.50
44695;DHT22;32845;59.422;17.930;2022-07-17T13:03:09;22.80;79.30
44695;DHT22;32845;59.422;17.930;2022-07-17T13:07:40;23.00;79.60
44695;DHT22;32845;59.422;17.930;2022-07-17T13:12:10;23.00;79.00
44695;DHT22;32845;59.422;17.930;2022-07-17T13:16:41;23.00;78.00
44695;DHT22;32845;59.422;17.930;2022-07-17T13:21:17;23.00;77.70
44695;DHT22;32845;59.422;17.930;2022-07-17T13:25:47;23.00;78.40
44695;DHT22;32845;59.422;17.930;2022-07-17T13:30:23;23.00;77.90
44695;DHT22;32845;59.422;17.930;2022-07-17T13:34:53;23.10;77.60
44695;DHT22;32845;59.422;17.930;2022-07-17T13:39:24;23.10;77.40
44695;DHT22;32845;59.422;17.930;2022-07-17T13:43:55;23.10;77.20
44695;DHT22;32845;59.422;17.930;2022-07-17T13:48:25;23.00;76.40
44695;DHT22;32845;59.422;17.930;2022-07-17T13:53:32;23.10;75.90
44695;DHT22;32845;59.422;17.930;2022-07-17T13:58:02;23.10;73.80
44695;DHT22;32845;59.422;17.930;2022-07-17T14:02:37;23.10;76.00
44695;DHT22;32845;59.422;17.930;2022-07-17T14:07:08;23.10;75.30
44695;DHT22;32845;59.422;17.930;2022-07-17T14:11:38;22.90;74.90
44695;DHT22;32845;59.422;17.930;2022-07-17T14:16:09;22.70;74.40
44695;DHT22;32845;59.422;17.930;2022-07-17T14:20:45;22.50;75.30
44695;DHT22;32845;59.422;17.930;2022-07-17T14:25:15;22.30;75.00
44695;DHT22;32845;59.422;17.930;2022-07-17T14:29:46;22.30;76.00
44695;DHT22;32845;59.422;17.930;2022-07-17T14:34:17;22.40;76.20
44695;DHT22;32845;59.422;17.930;2022-07-17T14:38:48;22.40;75.20
44695;DHT22;32845;59.422;17.930;2022-07-17T14:43:19;22.50;74.20
44695;DHT22;32845;59.422;17.930;2022-07-17T14:47:50;22.30;74.50
44695;DHT22;32845;59.422;17.930;2022-07-17T14:52:21;22.20;75.20
44695;DHT22;32845;59.422;17.930;2022-07-17T14:56:52;22.20;75.40
44695;DHT22;32845;59.422;17.930;2022-07-17T15:01:31;22.20;75.50
44695;DHT22;32845;59.422;17.930;2022-07-17T15:06:02;22.00;76.30
44695;DHT22;32845;59.422;17.930;2022-07-17T15:10:43;22.00;75.40
44695;DHT22;32845;59.422;17.930;2022-07-17T15:15:14;22.00;75.90
44695;DHT22;32845;59.422;17.930;2022-07-17T15:19:44;21.90;75.50
44695;DHT22;32845;59.422;17.930;2022-07-17T15:24:15;21.70;75.40
44695;DHT22;32845;59.422;17.930;2022-07-17T15:28:45;21.70;76.30
44695;DHT22;32845;59.422;17.930;2022-07-17T15:33:16;21.60;76.40
44695;DHT22;32845;59.422;17.930;2022-07-17T15:37:47;21.50;75.80
44695;DHT22;32845;59.422;17.930;2022-07-17T15:42:18;21.50;76.60
44695;DHT22;32845;59.422;17.930;2022-07-17T15:46:49;21.40;76.80
44695;DHT22;32845;59.422;17.930;2022-07-17T15:51:20;21.30;76.50
44695;DHT22;32845;59.422;17.930;2022-07-17T15:55:50;21.30;77.10
44695;DHT22;32845;59.422;17.930;2022-07-17T16:00:21;21.30;77.40
44695;DHT22;32845;59.422;17.930;2022-07-17T16:04:53;21.40;77.60
44695;DHT22;32845;59.422;17.930;2022-07-17T16:09:23;21.40;77.40
44695;DHT22;32845;59.422;17.930;2022-07-17T16:13:55;21.40;77.40
44695;DHT22;32845;59.422;17.930;2022-07-17T16:18:26;21.40;78.00
44695;DHT22;32845;59.422;17.930;2022-07-17T16:22:56;21.30;78.20
44695;DHT22;32845;59.422;17.930;2022-07-17T16:27:27;21.20;77.80
44695;DHT22;32845;59.422;17.930;2022-07-17T16:31:58;21.10;78.00
44695;DHT22;32845;59.422;17.930;2022-07-17T16:36:28;21.00;77.70
44695;DHT22;32845;59.422;17.930;2022-07-17T16:40:59;20.90;78.70
44695;DHT22;32845;59.422;17.930;2022-07-17T16:45:29;20.80;78.60
44695;DHT22;32845;59.422;17.930;2022-07-17T16:50:00;20.80;78.80
44695;DHT22;32845;59.422;17.930;2022-07-17T16:54:31;20.80;79.40
44695;DHT22;32845;59.422;17.930;2022-07-17T16:59:01;20.80;79.20
44695;DHT22;32845;59.422;17.930;2022-07-17T17:03:32;20.70;79.40
44695;DHT22;32845;59.422;17.930;2022-07-17T17:08:03;20.60;80.10
44695;DHT22;32845;59.422;17.930;2022-07-17T17:12:35;20.60;80.60
44695;DHT22;32845;59.422;17.930;2022-07-17T17:17:05;20.50;80.70
44695;DHT22;32845;59.422;17.930;2022-07-17T17:21:41;20.50;81.30
44695;DHT22;32845;59.422;17.930;2022-07-17T17:26:12;20.50;81.20
44695;DHT22;32845;59.422;17.930;2022-07-17T17:30:52;20.50;81.70
44695;DHT22;32845;59.422;17.930;2022-07-17T17:35:23;20.50;82.20
44695;DHT22;32845;59.422;17.930;2022-07-17T17:39:53;20.40;81.80
44695;DHT22;32845;59.422;17.930;2022-07-17T17:44:26;20.30;82.30
44695;DHT22;32845;59.422;17.930;2022-07-17T17:48:56;20.20;82.00
44695;DHT22;32845;59.422;17.930;2022-07-17T17:53:32;20.20;83.10
44695;DHT22;32845;59.422;17.930;2022-07-17T17:58:03;20.10;82.90
44695;DHT22;32845;59.422;17.930;2022-07-17T18:02:34;20.00;83.90
44695;DHT22;32845;59.422;17.930;2022-07-17T18:07:05;20.00;83.90
44695;DHT22;32845;59.422;17.930;2022-07-17T18:11:36;19.80;84.40
44695;DHT22;32845;59.422;17.930;2022-07-17T18:16:06;19.80;84.40
44695;DHT22;32845;59.422;17.930;2022-07-17T18:20:46;19.70;84.30
44695;DHT22;32845;59.422;17.930;2022-07-17T18:25:17;19.60;84.60
44695;DHT22;32845;59.422;17.930;2022-07-17T18:29:48;19.60;84.80
44695;DHT22;32845;59.422;17.930;2022-07-17T18:34:19;19.60;85.00
44695;DHT22;32845;59.422;17.930;2022-07-17T18:38:50;19.60;85.10
44695;DHT22;32845;59.422;17.930;2022-07-17T18:43:22;19.60;85.40
44695;DHT22;32845;59.422;17.930;2022-07-17T18:47:53;19.60;85.00
44695;DHT22;32845;59.422;17.930;2022-07-17T18:52:32;19.60;85.20
44695;DHT22;32845;59.422;17.930;2022-07-17T18:57:03;19.60;85.20
44695;DHT22;32845;59.422;17.930;2022-07-17T19:01:33;19.50;85.60
44695;DHT22;32845;59.422;17.930;2022-07-17T19:06:05;19.40;86.20
44695;DHT22;32845;59.422;17.930;2022-07-17T19:10:36;19.30;87.00
44695;DHT22;32845;59.422;17.930;2022-07-17T19:15:07;19.20;87.00
44695;DHT22;32845;59.422;17.930;2022-07-17T19:19:38;19.10;88.00
44695;DHT22;32845;59.422;17.930;2022-07-17T19:24:08;19.00;87.80
44695;DHT22;32845;59.422;17.930;2022-07-17T19:28:39;18.90;88.40
44695;DHT22;32845;59.422;17.930;2022-07-17T19:33:10;18.80;89.20
44695;DHT22;32845;59.422;17.930;2022-07-17T19:37:40;18.80;89.80
44695;DHT22;32845;59.422;17.930;2022-07-17T19:42:16;18.70;89.80
44695;DHT22;32845;59.422;17.930;2022-07-17T19:46:47;18.60;90.40
44695;DHT22;32845;59.422;17.930;2022-07-17T19:51:18;18.50;90.70
44695;DHT22;32845;59.422;17.930;2022-07-17T19:55:49;18.40;90.80
44695;DHT22;32845;59.422;17.930;2022-07-17T20:00:38;18.30;91.00
44695;DHT22;32845;59.422;17.930;2022-07-17T20:05:08;18.30;92.70
44695;DHT22;32845;59.422;17.930;2022-07-17T20:09:40;18.10;91.70
44695;DHT22;32845;59.422;17.930;2022-07-17T20:14:19;18.00;91.90
44695;DHT22;32845;59.422;17.930;2022-07-17T20:18:51;17.90;92.50
44695;DHT22;32845;59.422;17.930;2022-07-17T20:23:21;17.70;92.30
44695;DHT22;32845;59.422;17.930;2022-07-17T20:27:52;17.60;92.60
44695;DHT22;32845;59.422;17.930;2022-07-17T20:32:28;17.40;93.00
44695;DHT22;32845;59.422;17.930;2022-07-17T20:36:58;17.30;93.40
44695;DHT22;32845;59.422;17.930;2022-07-17T20:41:29;17.20;93.30
44695;DHT22;32845;59.422;17.930;2022-07-17T20:46:00;17.00;93.60
44695;DHT22;32845;59.422;17.930;2022-07-17T20:50:31;16.90;93.90
44695;DHT22;32845;59.422;17.930;2022-07-17T20:55:03;16.80;93.90
44695;DHT22;32845;59.422;17.930;2022-07-17T20:59:34;16.60;93.90
44695;DHT22;32845;59.422;17.930;2022-07-17T21:04:05;16.50;94.20
44695;DHT22;32845;59.422;17.930;2022-07-17T21:08:36;16.40;94.50
44695;DHT22;32845;59.422;17.930;2022-07-17T21:13:06;16.30;94.80
44695;DHT22;32845;59.422;17.930;2022-07-17T21:17:37;16.20;94.90
44695;DHT22;32845;59.422;17.930;2022-07-17T21:22:08;16.10;95.10
44695;DHT22;32845;59.422;17.930;2022-07-17T21:26:39;16.00;95.50
44695;DHT22;32845;59.422;17.930;2022-07-17T21:31:14;15.90;95.70
44695;DHT22;32845;59.422;17.930;2022-07-17T21:35:45;15.90;95.70
44695;DHT22;32845;59.422;17.930;2022-07-17T21:40:21;15.90;95.70
44695;DHT22;32845;59.422;17.930;2022-07-17T21:44:51;15.80;96.40
44695;DHT22;32845;59.422;17.930;2022-07-17T21:49:22;15.80;96.60
44695;DHT22;32845;59.422;17.930;2022-07-17T21:53:58;15.80;96.90
44695;DHT22;32845;59.422;17.930;2022-07-17T21:58:29;15.80;97.30
44695;DHT22;32845;59.422;17.930;2022-07-17T22:03:00;15.70;97.40
44695;DHT22;32845;59.422;17.930;2022-07-17T22:07:31;15.70;97.80
44695;DHT22;32845;59.422;17.930;2022-07-17T22:12:14;15.60;97.50
44695;DHT22;32845;59.422;17.930;2022-07-17T22:16:45;15.60;97.80
44695;DHT22;32845;59.422;17.930;2022-07-17T22:21:21;15.60;97.70
44695;DHT22;32845;59.422;17.930;2022-07-17T22:25:52;15.50;98.10
44695;DHT22;32845;59.422;17.930;2022-07-17T22:30:23;15.50;98.30
44695;DHT22;32845;59.422;17.930;2022-07-17T22:34:53;15.50;98.80
44695;DHT22;32845;59.422;17.930;2022-07-17T22:39:24;15.50;99.10
44695;DHT22;32845;59.422;17.930;2022-07-17T22:43:55;15.50;99.50
44695;DHT22;32845;59.422;17.930;2022-07-17T22:48:25;15.40;99.60
44695;DHT22;32845;59.422;17.930;2022-07-17T22:52:56;15.40;99.90
44695;DHT22;32845;59.422;17.930;2022-07-17T22:57:27;15.40;99.90
44695;DHT22;32845;59.422;17.930;2022-07-17T23:01:59;15.40;99.90
44695;DHT22;32845;59.422;17.930;2022-07-17T23:06:29;15.40;99.90
44695;DHT22;32845;59.422;17.930;2022-07-17T23:11:05;15.50;99.90
44695;DHT22;32845;59.422;17.930;2022-07-17T23:15:36;15.50;99.90
44695;DHT22;32845;59.422;17.930;2022-07-17T23:20:07;15.60;99.90
44695;DHT22;32845;59.422;17.930;2022-07-17T23:24:38;15.50;99.90
44695;DHT22;32845;59.422;17.930;2022-07-17T23:29:09;15.50;99.90
44695;DHT22;32845;59.422;17.930;2022-07-17T23:33:45;15.50;99.90
44695;DHT22;32845;59.422;17.930;2022-07-17T23:38:15;15.50;99.90
44695;DHT22;32845;59.422;17.930;2022-07-17T23:42:51;15.50;99.90
44695;DHT22;32845;59.422;17.930;2022-07-17T23:47:22;15.50;99.90
44695;DHT22;32845;59.422;17.930;2022-07-17T23:51:52;15.50;99.90
44695;DHT22;32845;59.422;17.930;2022-07-17T23:56:23;15.50;99.90
